sensor_id;sensor_type;location;lat;lon;timestamp;temperature;humidity
32095;DHT22;18608;53.688;10.748;2024-02-26T00:00:35;4.40;99.90
32095;DHT22;18608;53.688;10.748;2024-02-26T00:03:01;3.90;99.90
32095;DHT22;18608;53.688;10.748;2024-02-26T00:05:26;3.60;99.90
32095;DHT22;18608;53.688;10.748;2024-02-26T00:07:52;4.40;99.90
32095;DHT22;18608;53.688;10.748;2024-02-26T00:10:18;3.80;99.90
32095;DHT22;18608;53.688;10.748;2024-02-26T00:12:44;3.70;99.90
32095;DHT22;18608;53.688;10.748;2024-02-26T00:15:09;3.60;99.90
32095;DHT22;18608;53.688;10.748;2024-02-26T00:17:35;3.70;99.90
32095;DHT22;18608;53.688;10.748;2024-02-26T00:20:02;3.70;99.90
32095;DHT22;18608;53.688;10.748;2024-02-26T00:22:30;3.70;99.90
32095;DHT22;18608;53.688;10.748;2024-02-26T00:24:56;3.70;99.90
32095;DHT22;18608;53.688;10.748;2024-02-26T00:27:22;3.70;99.90
32095;DHT22;18608;53.688;10.748;2024-02-26T00:29:47;3.70;99.90
32095;DHT22;18608;53.688;10.748;2024-02-26T00:32:14;3.80;99.90
32095;DHT22;18608;53.688;10.748;2024-02-26T00:34:39;3.70;99.90
32095;DHT22;18608;53.688;10.748;2024-02-26T00:37:05;3.60;99.90
32095;DHT22;18608;53.688;10.748;2024-02-26T00:39:31;3.90;99.90
32095;DHT22;18608;53.688;10.748;2024-02-26T00:41:56;3.70;99.90
32095;DHT22;18608;53.688;10.748;2024-02-26T00:44:22;3.50;99.90
32095;DHT22;18608;53.688;10.748;2024-02-26T00:46:48;3.30;99.90
32095;DHT22;18608;53.688;10.748;2024-02-26T00:49:13;3.10;99.90
32095;DHT22;18608;53.688;10.748;2024-02-26T00:51:39;3.10;99.90
32095;DHT22;18608;53.688;10.748;2024-02-26T00:54:04;3.20;99.90
32095;DHT22;18608;53.688;10.748;2024-02-26T00:56:30;3.10;99.90
32095;DHT22;18608;53.688;10.748;2024-02-26T00:58:56;3.20;99.90
32095;DHT22;18608;53.688;10.748;2024-02-26T01:01:21;3.20;99.90
32095;DHT22;18608;53.688;10.748;2024-02-26T01:03:47;3.20;99.90
32095;DHT22;18608;53.688;10.748;2024-02-26T01:06:12;3.10;99.90
32095;DHT22;18608;53.688;10.748;2024-02-26T01:08:38;3.10;99.90
32095;DHT22;18608;53.688;10.748;2024-02-26T01:11:04;3.10;99.90
32095;DHT22;18608;53.688;10.748;2024-02-26T01:13:30;3.10;99.90
32095;DHT22;18608;53.688;10.748;2024-02-26T01:15:56;3.10;99.90
32095;DHT22;18608;53.688;10.748;2024-02-26T01:18:21;3.10;99.90
32095;DHT22;18608;53.688;10.748;2024-02-26T01:20:47;3.10;99.90
32095;DHT22;18608;53.688;10.748;2024-02-26T01:23:13;3.10;99.90
32095;DHT22;18608;53.688;10.748;2024-02-26T01:25:39;3.10;99.90
32095;DHT22;18608;53.688;10.748;2024-02-26T01:28:05;3.10;99.90
32095;DHT22;18608;53.688;10.748;2024-02-26T01:30:31;3.00;99.90
32095;DHT22;18608;53.688;10.748;2024-02-26T01:32:56;3.00;99.90
32095;DHT22;18608;53.688;10.748;2024-02-26T01:35:22;3.00;99.90
32095;DHT22;18608;53.688;10.748;2024-02-26T01:37:48;3.00;99.90
32095;DHT22;18608;53.688;10.748;2024-02-26T01:40:14;3.00;99.90
32095;DHT22;18608;53.688;10.748;2024-02-26T01:42:44;2.90;99.90
32095;DHT22;18608;53.688;10.748;2024-02-26T01:45:17;2.90;99.90
32095;DHT22;18608;53.688;10.748;2024-02-26T01:47:52;2.80;99.90
32095;DHT22;18608;53.688;10.748;2024-02-26T01:50:18;2.90;99.90
32095;DHT22;18608;53.688;10.748;2024-02-26T01:52:49;2.80;99.90
32095;DHT22;18608;53.688;10.748;2024-02-26T01:55:17;2.80;99.90
32095;DHT22;18608;53.688;10.748;2024-02-26T01:57:44;2.90;99.90
32095;DHT22;18608;53.688;10.748;2024-02-26T02:00:11;2.90;99.90
32095;DHT22;18608;53.688;10.748;2024-02-26T02:02:38;2.90;99.90
32095;DHT22;18608;53.688;10.748;2024-02-26T02:05:06;2.80;99.90
32095;DHT22;18608;53.688;10.748;2024-02-26T02:07:32;2.80;99.90
32095;DHT22;18608;53.688;10.748;2024-02-26T02:09:58;2.80;99.90
32095;DHT22;18608;53.688;10.748;2024-02-26T02:12:24;2.80;99.90
32095;DHT22;18608;53.688;10.748;2024-02-26T02:14:50;2.80;99.90
32095;DHT22;18608;53.688;10.748;2024-02-26T02:17:16;2.70;99.90
32095;DHT22;18608;53.688;10.748;2024-02-26T02:19:41;2.60;99.90
32095;DHT22;18608;53.688;10.748;2024-02-26T02:22:07;2.60;99.90
32095;DHT22;18608;53.688;10.748;2024-02-26T02:24:33;2.60;99.90
32095;DHT22;18608;53.688;10.748;2024-02-26T02:26:59;2.70;99.90
32095;DHT22;18608;53.688;10.748;2024-02-26T02:29:24;2.70;99.90
32095;DHT22;18608;53.688;10.748;2024-02-26T02:31:50;2.70;99.90
32095;DHT22;18608;53.688;10.748;2024-02-26T02:34:16;2.50;99.90
32095;DHT22;18608;53.688;10.748;2024-02-26T02:36:51;2.40;99.90
32095;DHT22;18608;53.688;10.748;2024-02-26T02:39:17;2.10;99.90
32095;DHT22;18608;53.688;10.748;2024-02-26T02:41:43;2.00;99.90
32095;DHT22;18608;53.688;10.748;2024-02-26T02:44:09;1.80;99.90
32095;DHT22;18608;53.688;10.748;2024-02-26T02:46:35;1.90;99.90
32095;DHT22;18608;53.688;10.748;2024-02-26T02:49:01;1.90;99.90
32095;DHT22;18608;53.688;10.748;2024-02-26T02:51:27;2.00;99.90
32095;DHT22;18608;53.688;10.748;2024-02-26T02:53:52;2.00;99.90
32095;DHT22;18608;53.688;10.748;2024-02-26T02:56:18;2.00;99.90
32095;DHT22;18608;53.688;10.748;2024-02-26T02:58:44;2.00;99.90
32095;DHT22;18608;53.688;10.748;2024-02-26T03:01:10;1.90;99.90
32095;DHT22;18608;53.688;10.748;2024-02-26T03:03:36;1.80;99.90
32095;DHT22;18608;53.688;10.748;2024-02-26T03:06:03;1.70;99.90
32095;DHT22;18608;53.688;10.748;2024-02-26T03:08:28;1.80;99.90
32095;DHT22;18608;53.688;10.748;2024-02-26T03:10:54;1.90;99.90
32095;DHT22;18608;53.688;10.748;2024-02-26T03:13:21;1.90;99.90
32095;DHT22;18608;53.688;10.748;2024-02-26T03:15:46;1.90;99.90
32095;DHT22;18608;53.688;10.748;2024-02-26T03:18:12;1.90;99.90
32095;DHT22;18608;53.688;10.748;2024-02-26T03:20:38;1.60;99.90
32095;DHT22;18608;53.688;10.748;2024-02-26T03:23:04;1.40;99.90
32095;DHT22;18608;53.688;10.748;2024-02-26T03:25:29;1.20;99.90
32095;DHT22;18608;53.688;10.748;2024-02-26T03:27:55;1.20;99.90
32095;DHT22;18608;53.688;10.748;2024-02-26T03:30:21;1.20;99.90
32095;DHT22;18608;53.688;10.748;2024-02-26T03:32:46;1.20;99.90
32095;DHT22;18608;53.688;10.748;2024-02-26T03:35:13;1.20;99.90
32095;DHT22;18608;53.688;10.748;2024-02-26T03:37:38;1.20;99.90
32095;DHT22;18608;53.688;10.748;2024-02-26T03:40:04;1.30;99.90
32095;DHT22;18608;53.688;10.748;2024-02-26T03:42:30;1.50;99.90
32095;DHT22;18608;53.688;10.748;2024-02-26T03:44:56;1.50;99.90
32095;DHT22;18608;53.688;10.748;2024-02-26T03:47:21;1.40;99.90
32095;DHT22;18608;53.688;10.748;2024-02-26T03:49:47;1.50;99.90
32095;DHT22;18608;53.688;10.748;2024-02-26T03:52:13;1.60;99.90
32095;DHT22;18608;53.688;10.748;2024-02-26T03:54:38;1.60;99.90
32095;DHT22;18608;53.688;10.748;2024-02-26T03:57:04;1.60;99.90
32095;DHT22;18608;53.688;10.748;2024-02-26T03:59:30;1.60;99.90
32095;DHT22;18608;53.688;10.748;2024-02-26T04:01:55;1.60;99.90
32095;DHT22;18608;53.688;10.748;2024-02-26T04:04:21;1.70;99.90
32095;DHT22;18608;53.688;10.748;2024-02-26T04:06:47;1.70;99.90
32095;DHT22;18608;53.688;10.748;2024-02-26T04:09:16;1.70;99.90
32095;DHT22;18608;53.688;10.748;2024-02-26T04:11:41;1.70;99.90
32095;DHT22;18608;53.688;10.748;2024-02-26T04:14:08;1.70;99.90
32095;DHT22;18608;53.688;10.748;2024-02-26T04:16:36;1.60;99.90
32095;DHT22;18608;53.688;10.748;2024-02-26T04:19:02;1.60;99.90
32095;DHT22;18608;53.688;10.748;2024-02-26T04:21:28;1.60;99.90
32095;DHT22;18608;53.688;10.748;2024-02-26T04:23:53;1.60;99.90
32095;DHT22;18608;53.688;10.748;2024-02-26T04:26:21;1.60;99.90
32095;DHT22;18608;53.688;10.748;2024-02-26T04:28:47;1.60;99.90
32095;DHT22;18608;53.688;10.748;2024-02-26T04:31:13;1.60;99.90
32095;DHT22;18608;53.688;10.748;2024-02-26T04:33:38;1.60;99.90
32095;DHT22;18608;53.688;10.748;2024-02-26T04:36:04;1.50;99.90
32095;DHT22;18608;53.688;10.748;2024-02-26T04:38:30;1.50;99.90
32095;DHT22;18608;53.688;10.748;2024-02-26T04:40:55;1.40;99.90
32095;DHT22;18608;53.688;10.748;2024-02-26T04:43:21;1.50;99.90
32095;DHT22;18608;53.688;10.748;2024-02-26T04:45:47;1.50;99.90
32095;DHT22;18608;53.688;10.748;2024-02-26T04:48:13;1.50;99.90
32095;DHT22;18608;53.688;10.748;2024-02-26T04:50:38;1.50;99.90
32095;DHT22;18608;53.688;10.748;2024-02-26T04:53:04;1.40;99.90
32095;DHT22;18608;53.688;10.748;2024-02-26T04:55:30;1.40;99.90
32095;DHT22;18608;53.688;10.748;2024-02-26T04:57:55;1.40;99.90
32095;DHT22;18608;53.688;10.748;2024-02-26T05:00:21;1.40;99.90
32095;DHT22;18608;53.688;10.748;2024-02-26T05:02:46;1.40;99.90
32095;DHT22;18608;53.688;10.748;2024-02-26T05:05:12;1.40;99.90
32095;DHT22;18608;53.688;10.748;2024-02-26T05:07:42;1.40;99.90
32095;DHT22;18608;53.688;10.748;2024-02-26T05:10:09;1.40;99.90
32095;DHT22;18608;53.688;10.748;2024-02-26T05:12:34;1.40;99.90
32095;DHT22;18608;53.688;10.748;2024-02-26T05:15:01;1.50;99.90
32095;DHT22;18608;53.688;10.748;2024-02-26T05:17:27;1.40;99.90
32095;DHT22;18608;53.688;10.748;2024-02-26T05:19:53;1.30;99.90
32095;DHT22;18608;53.688;10.748;2024-02-26T05:22:19;1.30;99.90
32095;DHT22;18608;53.688;10.748;2024-02-26T05:24:45;1.30;99.90
32095;DHT22;18608;53.688;10.748;2024-02-26T05:27:11;1.30;99.90
32095;DHT22;18608;53.688;10.748;2024-02-26T05:29:37;1.30;99.90
32095;DHT22;18608;53.688;10.748;2024-02-26T05:32:04;1.30;99.90
32095;DHT22;18608;53.688;10.748;2024-02-26T05:34:30;1.30;99.90
32095;DHT22;18608;53.688;10.748;2024-02-26T05:36:56;1.40;99.90
32095;DHT22;18608;53.688;10.748;2024-02-26T05:39:22;1.40;99.90
32095;DHT22;18608;53.688;10.748;2024-02-26T05:41:48;1.40;99.90
32095;DHT22;18608;53.688;10.748;2024-02-26T05:44:14;1.40;99.90
32095;DHT22;18608;53.688;10.748;2024-02-26T05:46:41;1.40;99.90
32095;DHT22;18608;53.688;10.748;2024-02-26T05:49:07;1.40;99.90
32095;DHT22;18608;53.688;10.748;2024-02-26T05:51:33;1.50;99.90
32095;DHT22;18608;53.688;10.748;2024-02-26T05:53:59;1.40;99.90
32095;DHT22;18608;53.688;10.748;2024-02-26T05:56:24;1.40;99.90
32095;DHT22;18608;53.688;10.748;2024-02-26T05:58:50;1.40;99.90
32095;DHT22;18608;53.688;10.748;2024-02-26T06:01:17;1.40;99.90
32095;DHT22;18608;53.688;10.748;2024-02-26T06:03:43;1.30;99.90
32095;DHT22;18608;53.688;10.748;2024-02-26T06:06:10;1.30;99.90
32095;DHT22;18608;53.688;10.748;2024-02-26T06:08:36;1.40;99.90
32095;DHT22;18608;53.688;10.748;2024-02-26T06:11:08;1.50;99.90
32095;DHT22;18608;53.688;10.748;2024-02-26T06:13:34;1.40;99.90
32095;DHT22;18608;53.688;10.748;2024-02-26T06:16:00;1.30;99.90
32095;DHT22;18608;53.688;10.748;2024-02-26T06:18:26;1.40;99.90
32095;DHT22;18608;53.688;10.748;2024-02-26T06:20:52;1.40;99.90
32095;DHT22;18608;53.688;10.748;2024-02-26T06:23:17;1.50;99.90
32095;DHT22;18608;53.688;10.748;2024-02-26T06:25:43;1.50;99.90
32095;DHT22;18608;53.688;10.748;2024-02-26T06:28:09;1.40;99.90
32095;DHT22;18608;53.688;10.748;2024-02-26T06:30:34;1.40;99.90
32095;DHT22;18608;53.688;10.748;2024-02-26T06:33:00;1.40;99.90
32095;DHT22;18608;53.688;10.748;2024-02-26T06:35:27;1.40;99.90
32095;DHT22;18608;53.688;10.748;2024-02-26T06:37:52;1.40;99.90
32095;DHT22;18608;53.688;10.748;2024-02-26T06:40:21;1.50;99.90
32095;DHT22;18608;53.688;10.748;2024-02-26T06:42:47;1.60;99.90
32095;DHT22;18608;53.688;10.748;2024-02-26T06:45:12;1.70;99.90
32095;DHT22;18608;53.688;10.748;2024-02-26T06:47:38;1.60;99.90
32095;DHT22;18608;53.688;10.748;2024-02-26T06:50:04;1.50;99.90
32095;DHT22;18608;53.688;10.748;2024-02-26T06:52:30;1.50;99.90
32095;DHT22;18608;53.688;10.748;2024-02-26T06:54:56;1.50;99.90
32095;DHT22;18608;53.688;10.748;2024-02-26T06:57:22;1.50;99.90
32095;DHT22;18608;53.688;10.748;2024-02-26T06:59:47;1.50;99.90
32095;DHT22;18608;53.688;10.748;2024-02-26T07:02:13;1.50;99.90
32095;DHT22;18608;53.688;10.748;2024-02-26T07:04:39;1.60;99.90
32095;DHT22;18608;53.688;10.748;2024-02-26T07:07:07;1.50;99.90
32095;DHT22;18608;53.688;10.748;2024-02-26T07:09:32;1.50;99.90
32095;DHT22;18608;53.688;10.748;2024-02-26T07:11:58;1.50;99.90
32095;DHT22;18608;53.688;10.748;2024-02-26T07:14:23;1.60;99.90
32095;DHT22;18608;53.688;10.748;2024-02-26T07:16:50;1.60;99.90
32095;DHT22;18608;53.688;10.748;2024-02-26T07:19:16;1.50;99.90
32095;DHT22;18608;53.688;10.748;2024-02-26T07:21:41;1.50;99.90
32095;DHT22;18608;53.688;10.748;2024-02-26T07:24:07;1.60;99.90
32095;DHT22;18608;53.688;10.748;2024-02-26T07:26:33;1.60;99.90
32095;DHT22;18608;53.688;10.748;2024-02-26T07:28:59;1.70;99.90
32095;DHT22;18608;53.688;10.748;2024-02-26T07:31:25;1.70;99.90
32095;DHT22;18608;53.688;10.748;2024-02-26T07:33:51;1.80;99.90
32095;DHT22;18608;53.688;10.748;2024-02-26T07:36:17;1.90;99.90
32095;DHT22;18608;53.688;10.748;2024-02-26T07:38:43;2.00;99.90
32095;DHT22;18608;53.688;10.748;2024-02-26T07:41:09;2.10;99.90
32095;DHT22;18608;53.688;10.748;2024-02-26T07:43:35;2.00;99.90
32095;DHT22;18608;53.688;10.748;2024-02-26T07:46:00;2.10;99.90
32095;DHT22;18608;53.688;10.748;2024-02-26T07:48:26;2.10;99.90
32095;DHT22;18608;53.688;10.748;2024-02-26T07:50:52;2.20;99.90
32095;DHT22;18608;53.688;10.748;2024-02-26T07:53:18;2.30;99.90
32095;DHT22;18608;53.688;10.748;2024-02-26T07:55:44;2.30;99.90
32095;DHT22;18608;53.688;10.748;2024-02-26T07:58:10;2.40;99.90
32095;DHT22;18608;53.688;10.748;2024-02-26T08:00:35;2.50;99.90
32095;DHT22;18608;53.688;10.748;2024-02-26T08:03:01;2.70;99.90
32095;DHT22;18608;53.688;10.748;2024-02-26T08:05:27;2.80;99.90
32095;DHT22;18608;53.688;10.748;2024-02-26T08:07:53;3.00;99.90
32095;DHT22;18608;53.688;10.748;2024-02-26T08:10:20;3.00;99.90
32095;DHT22;18608;53.688;10.748;2024-02-26T08:12:45;3.00;99.90
32095;DHT22;18608;53.688;10.748;2024-02-26T08:15:11;3.10;99.90
32095;DHT22;18608;53.688;10.748;2024-02-26T08:17:37;3.20;99.90
32095;DHT22;18608;53.688;10.748;2024-02-26T08:20:04;3.40;99.90
32095;DHT22;18608;53.688;10.748;2024-02-26T08:22:29;3.40;99.90
32095;DHT22;18608;53.688;10.748;2024-02-26T08:24:55;3.50;99.90
32095;DHT22;18608;53.688;10.748;2024-02-26T08:27:21;3.50;99.90
32095;DHT22;18608;53.688;10.748;2024-02-26T08:29:46;3.60;99.90
32095;DHT22;18608;53.688;10.748;2024-02-26T08:32:12;3.80;99.90
32095;DHT22;18608;53.688;10.748;2024-02-26T08:34:38;3.90;99.90
32095;DHT22;18608;53.688;10.748;2024-02-26T08:37:04;4.00;99.90
32095;DHT22;18608;53.688;10.748;2024-02-26T08:39:31;3.80;99.90
32095;DHT22;18608;53.688;10.748;2024-02-26T08:41:56;3.80;99.90
32095;DHT22;18608;53.688;10.748;2024-02-26T08:44:22;3.70;99.90
32095;DHT22;18608;53.688;10.748;2024-02-26T08:46:48;3.70;99.90
32095;DHT22;18608;53.688;10.748;2024-02-26T08:49:13;3.90;99.90
32095;DHT22;18608;53.688;10.748;2024-02-26T08:51:42;4.00;99.90
32095;DHT22;18608;53.688;10.748;2024-02-26T08:54:09;4.10;99.90
32095;DHT22;18608;53.688;10.748;2024-02-26T08:56:35;4.10;99.90
32095;DHT22;18608;53.688;10.748;2024-02-26T08:59:00;4.00;99.90
32095;DHT22;18608;53.688;10.748;2024-02-26T09:01:29;4.00;99.90
32095;DHT22;18608;53.688;10.748;2024-02-26T09:03:55;4.10;99.90
32095;DHT22;18608;53.688;10.748;2024-02-26T09:06:21;4.10;99.90
32095;DHT22;18608;53.688;10.748;2024-02-26T09:08:47;4.10;99.90
32095;DHT22;18608;53.688;10.748;2024-02-26T09:11:13;4.00;99.90
32095;DHT22;18608;53.688;10.748;2024-02-26T09:13:38;4.00;99.90
32095;DHT22;18608;53.688;10.748;2024-02-26T09:16:05;4.20;99.90
32095;DHT22;18608;53.688;10.748;2024-02-26T09:18:31;4.10;99.90
32095;DHT22;18608;53.688;10.748;2024-02-26T09:20:56;4.20;99.90
32095;DHT22;18608;53.688;10.748;2024-02-26T09:23:22;4.40;99.90
32095;DHT22;18608;53.688;10.748;2024-02-26T09:25:47;4.50;99.90
32095;DHT22;18608;53.688;10.748;2024-02-26T09:28:13;4.60;99.90
32095;DHT22;18608;53.688;10.748;2024-02-26T09:30:42;4.70;99.90
32095;DHT22;18608;53.688;10.748;2024-02-26T09:33:08;4.70;99.90
32095;DHT22;18608;53.688;10.748;2024-02-26T09:35:33;4.70;99.90
32095;DHT22;18608;53.688;10.748;2024-02-26T09:37:59;4.80;99.90
32095;DHT22;18608;53.688;10.748;2024-02-26T09:40:25;4.80;99.90
32095;DHT22;18608;53.688;10.748;2024-02-26T09:42:53;4.80;99.90
32095;DHT22;18608;53.688;10.748;2024-02-26T09:45:25;4.90;99.90
32095;DHT22;18608;53.688;10.748;2024-02-26T09:47:55;4.90;99.90
32095;DHT22;18608;53.688;10.748;2024-02-26T09:50:21;5.00;99.90
32095;DHT22;18608;53.688;10.748;2024-02-26T09:52:51;5.00;99.90
32095;DHT22;18608;53.688;10.748;2024-02-26T09:55:17;4.90;99.90
32095;DHT22;18608;53.688;10.748;2024-02-26T09:57:45;5.00;99.90
32095;DHT22;18608;53.688;10.748;2024-02-26T10:00:17;5.10;99.90
32095;DHT22;18608;53.688;10.748;2024-02-26T10:02:45;5.00;99.90
32095;DHT22;18608;53.688;10.748;2024-02-26T10:05:17;5.10;99.90
32095;DHT22;18608;53.688;10.748;2024-02-26T10:07:45;5.10;99.90
32095;DHT22;18608;53.688;10.748;2024-02-26T10:10:13;5.30;99.90
32095;DHT22;18608;53.688;10.748;2024-02-26T10:12:39;5.20;99.90
32095;DHT22;18608;53.688;10.748;2024-02-26T10:15:04;5.30;99.90
32095;DHT22;18608;53.688;10.748;2024-02-26T10:17:30;5.30;99.90
32095;DHT22;18608;53.688;10.748;2024-02-26T10:20:14;5.50;99.90
32095;DHT22;18608;53.688;10.748;2024-02-26T10:22:44;5.40;99.90
32095;DHT22;18608;53.688;10.748;2024-02-26T10:25:10;5.60;99.90
32095;DHT22;18608;53.688;10.748;2024-02-26T10:27:36;5.70;99.90
32095;DHT22;18608;53.688;10.748;2024-02-26T10:30:16;5.90;99.90
32095;DHT22;18608;53.688;10.748;2024-02-26T10:32:43;5.80;99.90
32095;DHT22;18608;53.688;10.748;2024-02-26T10:35:09;5.90;99.90
32095;DHT22;18608;53.688;10.748;2024-02-26T10:37:35;5.90;99.90
32095;DHT22;18608;53.688;10.748;2024-02-26T10:40:01;5.90;99.90
32095;DHT22;18608;53.688;10.748;2024-02-26T10:42:27;5.90;99.90
32095;DHT22;18608;53.688;10.748;2024-02-26T10:44:53;4.60;99.90
32095;DHT22;18608;53.688;10.748;2024-02-26T10:47:19;6.00;99.90
32095;DHT22;18608;53.688;10.748;2024-02-26T10:49:46;6.00;99.90
32095;DHT22;18608;53.688;10.748;2024-02-26T10:52:14;6.00;99.90
32095;DHT22;18608;53.688;10.748;2024-02-26T10:54:41;5.90;99.90
32095;DHT22;18608;53.688;10.748;2024-02-26T10:57:08;6.00;99.90
32095;DHT22;18608;53.688;10.748;2024-02-26T10:59:35;6.10;99.90
32095;DHT22;18608;53.688;10.748;2024-02-26T11:02:02;6.10;99.90
32095;DHT22;18608;53.688;10.748;2024-02-26T11:04:29;6.20;99.90
32095;DHT22;18608;53.688;10.748;2024-02-26T11:06:57;6.20;99.90
32095;DHT22;18608;53.688;10.748;2024-02-26T11:09:23;6.30;99.90
32095;DHT22;18608;53.688;10.748;2024-02-26T11:11:50;6.30;99.90
32095;DHT22;18608;53.688;10.748;2024-02-26T11:14:20;6.20;99.90
32095;DHT22;18608;53.688;10.748;2024-02-26T11:16:47;6.30;99.90
32095;DHT22;18608;53.688;10.748;2024-02-26T11:19:14;6.30;99.90
32095;DHT22;18608;53.688;10.748;2024-02-26T11:21:41;6.30;99.90
32095;DHT22;18608;53.688;10.748;2024-02-26T11:24:09;6.50;99.90
32095;DHT22;18608;53.688;10.748;2024-02-26T11:26:40;6.50;99.90
32095;DHT22;18608;53.688;10.748;2024-02-26T11:29:09;5.80;99.90
32095;DHT22;18608;53.688;10.748;2024-02-26T11:31:37;6.50;99.90
32095;DHT22;18608;53.688;10.748;2024-02-26T11:34:03;6.60;99.90
32095;DHT22;18608;53.688;10.748;2024-02-26T11:36:29;6.60;99.90
32095;DHT22;18608;53.688;10.748;2024-02-26T11:38:55;6.50;99.90
32095;DHT22;18608;53.688;10.748;2024-02-26T11:41:22;6.50;99.90
32095;DHT22;18608;53.688;10.748;2024-02-26T11:44:00;6.60;99.90
32095;DHT22;18608;53.688;10.748;2024-02-26T11:46:32;6.50;99.90
32095;DHT22;18608;53.688;10.748;2024-02-26T11:49:03;6.50;99.90
32095;DHT22;18608;53.688;10.748;2024-02-26T11:51:33;6.40;99.90
32095;DHT22;18608;53.688;10.748;2024-02-26T11:53:59;6.40;99.90
32095;DHT22;18608;53.688;10.748;2024-02-26T11:56:25;6.30;99.90
32095;DHT22;18608;53.688;10.748;2024-02-26T12:02:00;6.30;99.90
32095;DHT22;18608;53.688;10.748;2024-02-26T12:04:27;6.30;99.90
32095;DHT22;18608;53.688;10.748;2024-02-26T12:07:00;6.40;99.90
32095;DHT22;18608;53.688;10.748;2024-02-26T12:12:04;6.30;99.90
32095;DHT22;18608;53.688;10.748;2024-02-26T12:14:33;6.30;99.90
32095;DHT22;18608;53.688;10.748;2024-02-26T12:16:59;6.40;99.90
32095;DHT22;18608;53.688;10.748;2024-02-26T12:19:25;6.40;99.90
32095;DHT22;18608;53.688;10.748;2024-02-26T12:21:53;6.30;99.90
32095;DHT22;18608;53.688;10.748;2024-02-26T12:24:22;6.40;99.90
32095;DHT22;18608;53.688;10.748;2024-02-26T12:26:47;6.40;99.90
32095;DHT22;18608;53.688;10.748;2024-02-26T12:29:13;6.50;99.90
32095;DHT22;18608;53.688;10.748;2024-02-26T12:31:40;6.40;99.90
32095;DHT22;18608;53.688;10.748;2024-02-26T12:34:07;6.40;99.90
32095;DHT22;18608;53.688;10.748;2024-02-26T12:36:36;6.40;99.90
32095;DHT22;18608;53.688;10.748;2024-02-26T12:39:05;6.40;99.90
32095;DHT22;18608;53.688;10.748;2024-02-26T12:41:32;6.50;99.90
32095;DHT22;18608;53.688;10.748;2024-02-26T12:43:58;6.60;99.90
32095;DHT22;18608;53.688;10.748;2024-02-26T12:46:24;6.70;99.90
32095;DHT22;18608;53.688;10.748;2024-02-26T12:48:50;6.70;99.90
32095;DHT22;18608;53.688;10.748;2024-02-26T12:51:16;6.80;99.90
32095;DHT22;18608;53.688;10.748;2024-02-26T12:53:44;6.60;99.90
32095;DHT22;18608;53.688;10.748;2024-02-26T12:56:11;6.70;99.90
32095;DHT22;18608;53.688;10.748;2024-02-26T12:58:40;6.70;99.90
32095;DHT22;18608;53.688;10.748;2024-02-26T13:01:06;6.60;99.90
32095;DHT22;18608;53.688;10.748;2024-02-26T13:03:36;6.80;99.90
32095;DHT22;18608;53.688;10.748;2024-02-26T13:06:03;6.80;99.90
32095;DHT22;18608;53.688;10.748;2024-02-26T13:08:31;6.70;99.90
32095;DHT22;18608;53.688;10.748;2024-02-26T13:10:59;6.70;99.90
32095;DHT22;18608;53.688;10.748;2024-02-26T13:13:25;6.60;99.90
32095;DHT22;18608;53.688;10.748;2024-02-26T13:16:04;6.60;99.90
32095;DHT22;18608;53.688;10.748;2024-02-26T13:18:31;6.60;99.90
32095;DHT22;18608;53.688;10.748;2024-02-26T13:21:14;6.60;99.90
32095;DHT22;18608;53.688;10.748;2024-02-26T13:23:41;6.60;99.90
32095;DHT22;18608;53.688;10.748;2024-02-26T13:26:07;6.60;99.90
32095;DHT22;18608;53.688;10.748;2024-02-26T13:28:34;6.60;99.90
32095;DHT22;18608;53.688;10.748;2024-02-26T13:31:00;6.30;99.90
32095;DHT22;18608;53.688;10.748;2024-02-26T13:33:27;6.30;99.90
32095;DHT22;18608;53.688;10.748;2024-02-26T13:35:54;6.40;99.90
32095;DHT22;18608;53.688;10.748;2024-02-26T13:38:20;6.40;99.90
32095;DHT22;18608;53.688;10.748;2024-02-26T13:40:46;6.40;99.90
32095;DHT22;18608;53.688;10.748;2024-02-26T13:43:12;6.40;99.90
32095;DHT22;18608;53.688;10.748;2024-02-26T13:45:38;6.40;99.90
32095;DHT22;18608;53.688;10.748;2024-02-26T13:48:06;6.40;99.90
32095;DHT22;18608;53.688;10.748;2024-02-26T13:50:32;6.40;99.90
32095;DHT22;18608;53.688;10.748;2024-02-26T13:55:27;6.20;99.90
32095;DHT22;18608;53.688;10.748;2024-02-26T13:57:56;6.10;99.90
32095;DHT22;18608;53.688;10.748;2024-02-26T14:00:22;6.10;99.90
32095;DHT22;18608;53.688;10.748;2024-02-26T14:02:48;6.20;99.90
32095;DHT22;18608;53.688;10.748;2024-02-26T14:05:14;6.20;99.90
32095;DHT22;18608;53.688;10.748;2024-02-26T14:07:40;6.10;99.90
32095;DHT22;18608;53.688;10.748;2024-02-26T14:10:07;6.20;99.90
32095;DHT22;18608;53.688;10.748;2024-02-26T14:12:32;6.20;99.90
32095;DHT22;18608;53.688;10.748;2024-02-26T14:14:58;6.20;99.90
32095;DHT22;18608;53.688;10.748;2024-02-26T14:17:26;6.10;99.90
32095;DHT22;18608;53.688;10.748;2024-02-26T14:19:55;6.00;99.90
32095;DHT22;18608;53.688;10.748;2024-02-26T14:22:21;6.00;99.90
32095;DHT22;18608;53.688;10.748;2024-02-26T14:24:46;6.00;99.90
32095;DHT22;18608;53.688;10.748;2024-02-26T14:27:13;5.90;99.90
32095;DHT22;18608;53.688;10.748;2024-02-26T14:29:43;5.90;99.90
32095;DHT22;18608;53.688;10.748;2024-02-26T14:32:09;5.80;99.90
32095;DHT22;18608;53.688;10.748;2024-02-26T14:34:35;5.80;99.90
32095;DHT22;18608;53.688;10.748;2024-02-26T14:37:01;5.70;99.90
32095;DHT22;18608;53.688;10.748;2024-02-26T14:39:27;5.90;99.90
32095;DHT22;18608;53.688;10.748;2024-02-26T14:41:54;5.80;99.90
32095;DHT22;18608;53.688;10.748;2024-02-26T14:44:20;5.70;99.90
32095;DHT22;18608;53.688;10.748;2024-02-26T14:46:46;5.70;99.90
32095;DHT22;18608;53.688;10.748;2024-02-26T14:49:11;5.70;99.90
32095;DHT22;18608;53.688;10.748;2024-02-26T14:51:38;5.50;99.90
32095;DHT22;18608;53.688;10.748;2024-02-26T14:54:04;5.30;99.90
32095;DHT22;18608;53.688;10.748;2024-02-26T14:56:29;5.30;99.90
32095;DHT22;18608;53.688;10.748;2024-02-26T14:58:55;5.20;99.90
32095;DHT22;18608;53.688;10.748;2024-02-26T15:01:21;5.20;99.90
32095;DHT22;18608;53.688;10.748;2024-02-26T15:03:47;5.10;99.90
32095;DHT22;18608;53.688;10.748;2024-02-26T15:06:13;5.10;99.90
32095;DHT22;18608;53.688;10.748;2024-02-26T15:08:38;5.10;99.90
32095;DHT22;18608;53.688;10.748;2024-02-26T15:11:04;5.10;99.90
32095;DHT22;18608;53.688;10.748;2024-02-26T15:13:30;5.10;99.90
32095;DHT22;18608;53.688;10.748;2024-02-26T15:15:56;5.10;99.90
32095;DHT22;18608;53.688;10.748;2024-02-26T15:18:21;5.00;99.90
32095;DHT22;18608;53.688;10.748;2024-02-26T15:20:47;4.90;99.90
32095;DHT22;18608;53.688;10.748;2024-02-26T15:23:13;4.90;99.90
32095;DHT22;18608;53.688;10.748;2024-02-26T15:25:39;5.00;99.90
32095;DHT22;18608;53.688;10.748;2024-02-26T15:28:06;5.00;99.90
32095;DHT22;18608;53.688;10.748;2024-02-26T15:30:32;5.00;99.90
32095;DHT22;18608;53.688;10.748;2024-02-26T15:32:59;5.00;99.90